createdAt,value
2023-02-11T00:01:37.920Z,10.90
2023-02-11T00:04:07.027Z,12.45
2023-02-11T00:06:35.470Z,12.82
2023-02-11T00:09:03.443Z,12.75
2023-02-11T00:11:31.228Z,13.32
2023-02-11T00:13:59.434Z,12.95
2023-02-11T00:16:29.358Z,12.43
2023-02-11T00:18:57.521Z,13.60
2023-02-11T00:21:26.076Z,13.43
2023-02-11T00:23:54.915Z,13.05
2023-02-11T00:26:23.461Z,13.00
2023-02-11T00:28:51.956Z,14.60
2023-02-11T00:31:20.271Z,14.48
2023-02-11T00:33:50.807Z,12.88
2023-02-11T00:36:20.131Z,14.43
2023-02-11T00:38:48.881Z,11.57
2023-02-11T00:41:16.842Z,14.18
2023-02-11T00:43:44.708Z,13.07
2023-02-11T00:46:12.974Z,13.05
2023-02-11T00:48:41.048Z,13.57
2023-02-11T00:51:10.365Z,12.57
2023-02-11T00:53:38.076Z,12.57
2023-02-11T00:56:06.205Z,11.95
2023-02-11T00:58:34.378Z,15.27
2023-02-11T01:01:02.085Z,14.10
2023-02-11T01:03:29.883Z,14.82
2023-02-11T01:05:57.647Z,14.52
2023-02-11T01:08:26.676Z,13.90
2023-02-11T01:10:55.250Z,14.40
2023-02-11T01:13:22.963Z,15.00
2023-02-11T01:15:51.018Z,15.52
2023-02-11T01:18:18.980Z,15.35
2023-02-11T01:20:46.692Z,13.90
2023-02-11T01:23:14.615Z,14.90
2023-02-11T01:25:45.279Z,15.40
2023-02-11T01:28:16.985Z,16.65
2023-02-11T01:30:44.695Z,17.70
2023-02-11T01:33:12.484Z,15.02
2023-02-11T01:35:40.233Z,16.73
2023-02-11T01:38:07.966Z,15.68
2023-02-11T01:40:35.660Z,15.30
2023-02-11T01:43:04.721Z,13.70
2023-02-11T01:45:53.373Z,19.13
2023-02-11T01:48:23.348Z,17.67
2023-02-11T01:50:52.064Z,17.80
2023-02-11T01:53:37.415Z,14.82
2023-02-11T01:56:24.537Z,20.48
2023-02-11T01:58:57.438Z,15.32
2023-02-11T02:01:26.274Z,15.85
2023-02-11T02:03:55.663Z,14.25
2023-02-11T02:06:27.394Z,15.70
2023-02-11T02:08:57.703Z,17.15
2023-02-11T02:11:26.309Z,16.48
2023-02-11T02:13:55.384Z,17.58
2023-02-11T02:16:23.532Z,15.25
2023-02-11T02:18:55.332Z,18.38
2023-02-11T02:21:37.938Z,16.98
2023-02-11T02:24:14.905Z,15.68
2023-02-11T02:26:55.130Z,17.13
2023-02-11T02:29:41.730Z,16.17
2023-02-11T02:32:30.826Z,18.80
2023-02-11T02:35:02.748Z,17.02
2023-02-11T02:37:32.555Z,14.90
2023-02-11T02:40:00.823Z,14.30
2023-02-11T02:42:28.542Z,16.17
2023-02-11T02:44:56.850Z,16.83
2023-02-11T02:47:25.912Z,19.77
2023-02-11T02:49:53.614Z,16.55
2023-02-11T02:52:26.478Z,17.50
2023-02-11T02:54:58.943Z,14.73
2023-02-11T02:57:30.833Z,16.08
2023-02-11T03:00:04.633Z,15.05
2023-02-11T03:02:35.945Z,17.63
2023-02-11T03:05:06.770Z,15.93
2023-02-11T03:07:38.742Z,15.38
2023-02-11T03:10:09.028Z,18.45
2023-02-11T03:12:37.401Z,17.35
2023-02-11T03:15:06.593Z,14.95
2023-02-11T03:17:37.088Z,14.70
2023-02-11T03:20:05.655Z,17.23
2023-02-11T03:22:34.428Z,16.02
2023-02-11T03:25:02.941Z,15.70
2023-02-11T03:27:34.008Z,14.73
2023-02-11T03:30:06.293Z,13.85
2023-02-11T03:32:35.453Z,16.70
2023-02-11T03:35:08.175Z,17.02
2023-02-11T03:37:37.716Z,15.23
2023-02-11T03:40:07.659Z,14.05
2023-02-11T03:42:37.155Z,15.07
2023-02-11T03:45:06.634Z,13.18
2023-02-11T03:47:36.398Z,14.43
2023-02-11T03:50:06.848Z,13.40
2023-02-11T03:52:35.203Z,15.25
2023-02-11T03:55:04.007Z,15.30
2023-02-11T03:57:34.218Z,13.50
2023-02-11T04:00:02.136Z,14.32
2023-02-11T04:02:39.980Z,17.48
2023-02-11T04:05:10.365Z,13.10
2023-02-11T04:07:38.042Z,14.85
2023-02-11T04:10:06.036Z,15.00
2023-02-11T04:12:33.796Z,14.35
2023-02-11T04:15:01.527Z,14.80
2023-02-11T04:17:29.293Z,13.52
2023-02-11T04:19:57.057Z,15.18
2023-02-11T04:22:26.076Z,15.25
2023-02-11T04:24:53.815Z,13.93
2023-02-11T04:27:21.531Z,13.68
2023-02-11T04:29:49.235Z,15.57
2023-02-11T04:32:16.953Z,16.20
2023-02-11T04:34:44.789Z,14.45
2023-02-11T04:37:12.667Z,15.52
2023-02-11T04:39:41.827Z,13.38
2023-02-11T04:42:09.764Z,16.02
2023-02-11T04:44:37.738Z,16.27
2023-02-11T04:47:06.409Z,13.63
2023-02-11T04:49:34.472Z,13.18
2023-02-11T04:52:02.587Z,15.88
2023-02-11T04:54:30.482Z,14.13
2023-02-11T04:56:59.932Z,13.02
2023-02-11T04:59:27.769Z,13.07
2023-02-11T05:01:55.854Z,14.00
2023-02-11T05:04:26.310Z,14.15
2023-02-11T05:06:54.063Z,13.82
2023-02-11T05:09:21.757Z,13.95
2023-02-11T05:11:49.536Z,13.40
2023-02-11T05:14:18.579Z,14.85
2023-02-11T05:16:46.346Z,13.30
2023-02-11T05:19:14.111Z,12.60
2023-02-11T05:21:53.121Z,13.43
2023-02-11T05:24:28.210Z,13.60
2023-02-11T05:26:55.882Z,15.00
2023-02-11T05:29:24.952Z,13.57
2023-02-11T05:31:52.618Z,13.63
2023-02-11T05:34:20.331Z,11.73
2023-02-11T05:36:48.042Z,13.75
2023-02-11T05:39:15.753Z,12.65
2023-02-11T05:41:43.398Z,13.82
2023-02-11T05:44:11.156Z,13.50
2023-02-11T05:46:40.328Z,14.27
2023-02-11T05:49:08.061Z,13.10
2023-02-11T05:51:35.782Z,11.60
2023-02-11T05:54:03.641Z,12.48
2023-02-11T05:56:31.307Z,12.35
2023-02-11T05:58:59.595Z,14.43
2023-02-11T06:01:27.382Z,12.23
2023-02-11T06:03:56.443Z,11.80
2023-02-11T06:06:24.091Z,12.50
2023-02-11T06:08:51.811Z,14.85
2023-02-11T06:11:20.214Z,13.77
2023-02-11T06:13:49.928Z,14.95
2023-02-11T06:16:17.709Z,15.43
2023-02-11T06:18:45.388Z,13.65
2023-02-11T06:21:14.430Z,11.93
2023-02-11T06:23:43.093Z,12.68
2023-02-11T06:26:17.350Z,13.27
2023-02-11T06:28:45.191Z,12.57
2023-02-11T06:31:13.114Z,13.10
2023-02-11T06:33:40.982Z,13.00
2023-02-11T06:36:15.206Z,14.68
2023-02-11T06:38:43.130Z,13.20
2023-02-11T06:41:11.196Z,16.95
2023-02-11T06:43:39.352Z,12.30
2023-02-11T06:46:07.611Z,11.43
2023-02-11T06:48:35.474Z,12.88
2023-02-11T06:51:04.458Z,12.30
2023-02-11T06:53:35.759Z,15.00
2023-02-11T06:56:04.333Z,13.70
2023-02-11T06:58:32.315Z,11.70
2023-02-11T07:01:00.108Z,13.18
2023-02-11T07:03:27.786Z,11.40
2023-02-11T07:05:55.501Z,12.90
2023-02-11T07:08:23.212Z,12.20
2023-02-11T07:10:52.286Z,13.13
2023-02-11T07:13:19.918Z,13.07
2023-02-11T07:15:47.793Z,12.98
2023-02-11T07:18:15.560Z,13.20
2023-02-11T07:20:43.369Z,11.43
2023-02-11T07:23:11.089Z,13.55
2023-02-11T07:25:39.017Z,13.07
2023-02-11T07:28:08.189Z,11.13
2023-02-11T07:30:35.891Z,12.93
2023-02-11T07:33:03.788Z,12.68
2023-02-11T07:35:31.552Z,14.13
2023-02-11T07:37:59.265Z,11.75
2023-02-11T07:40:26.956Z,11.50
2023-02-11T07:42:54.701Z,11.98
2023-02-11T07:45:24.924Z,11.75
2023-02-11T07:47:52.677Z,13.95
2023-02-11T07:50:20.456Z,13.90
2023-02-11T07:52:48.339Z,11.65
2023-02-11T07:55:16.149Z,10.93
2023-02-11T07:57:43.892Z,11.90
2023-02-11T08:00:12.421Z,11.23
2023-02-11T08:02:41.476Z,11.45
2023-02-11T08:05:09.389Z,13.25
2023-02-11T08:07:37.111Z,12.35
2023-02-11T08:10:05.029Z,12.88
2023-02-11T08:12:32.776Z,12.48
2023-02-11T08:15:00.478Z,11.20
2023-02-11T08:17:28.204Z,13.32
2023-02-11T08:19:57.317Z,13.38
2023-02-11T08:22:24.974Z,12.18
2023-02-11T08:24:52.659Z,12.10
2023-02-11T08:27:20.447Z,11.68
2023-02-11T08:29:48.125Z,10.95
2023-02-11T08:32:15.951Z,13.15
2023-02-11T08:34:43.702Z,11.70
2023-02-11T08:37:36.371Z,11.65
2023-02-11T08:40:06.277Z,12.48
2023-02-11T08:42:34.000Z,10.63
2023-02-11T08:45:01.688Z,10.93
2023-02-11T08:47:29.374Z,10.52
2023-02-11T08:49:57.103Z,11.02
2023-02-11T08:52:24.815Z,11.77
2023-02-11T08:54:52.565Z,12.05
2023-02-11T08:57:21.715Z,11.00
2023-02-11T08:59:49.656Z,11.25
2023-02-11T09:02:17.457Z,12.68
2023-02-11T09:04:45.207Z,10.77
2023-02-11T09:07:13.641Z,12.32
2023-02-11T09:09:41.401Z,11.93
2023-02-11T09:12:09.135Z,11.68
2023-02-11T09:14:38.383Z,11.20
2023-02-11T09:17:06.137Z,11.57
2023-02-11T09:19:33.841Z,11.07
2023-02-11T09:22:02.452Z,11.68
2023-02-11T09:24:30.152Z,11.75
2023-02-11T09:26:57.914Z,10.73
2023-02-11T09:29:25.645Z,11.52
2023-02-11T09:31:54.845Z,12.93
2023-02-11T09:34:22.672Z,11.55
2023-02-11T09:36:50.510Z,11.55
2023-02-11T09:39:19.556Z,12.23
2023-02-11T09:42:11.174Z,12.70
2023-02-11T09:44:39.932Z,11.65
2023-02-11T09:47:18.545Z,12.45
2023-02-11T09:49:48.034Z,12.25
2023-02-11T09:52:20.277Z,11.82
2023-02-11T09:54:52.917Z,11.60
2023-02-11T09:57:28.509Z,10.98
2023-02-11T09:59:57.334Z,11.18
2023-02-11T10:02:30.639Z,11.00
2023-02-11T10:05:16.217Z,12.88
2023-02-11T10:07:47.434Z,12.43
2023-02-11T10:10:19.534Z,12.05
2023-02-11T10:12:59.188Z,12.52
2023-02-11T10:18:02.824Z,10.55
2023-02-11T10:20:33.510Z,13.05
2023-02-11T10:23:02.243Z,11.13
2023-02-11T10:25:34.668Z,12.48
2023-02-11T10:28:11.228Z,12.90
2023-02-11T10:30:42.008Z,13.88
2023-02-11T10:33:14.943Z,11.48
2023-02-11T10:35:43.918Z,14.55
2023-02-11T10:38:12.347Z,12.98
2023-02-11T10:40:40.167Z,13.13
2023-02-11T10:43:11.585Z,13.73
2023-02-11T10:45:40.978Z,12.50
2023-02-11T10:48:28.971Z,13.32
2023-02-11T10:51:07.726Z,11.90
2023-02-11T10:53:35.695Z,14.23
2023-02-11T10:56:03.815Z,11.38
2023-02-11T10:58:32.657Z,13.50
2023-02-11T11:01:01.023Z,11.55
2023-02-11T11:03:32.286Z,14.93
2023-02-11T11:06:01.282Z,12.55
2023-02-11T11:08:40.525Z,11.63
2023-02-11T11:11:09.249Z,13.10
2023-02-11T11:13:38.636Z,12.32
2023-02-11T11:16:24.097Z,12.20
2023-02-11T11:18:52.697Z,14.45
2023-02-11T11:21:22.440Z,14.68
2023-02-11T11:24:01.559Z,13.10
2023-02-11T11:26:30.586Z,13.10
2023-02-11T11:28:59.946Z,12.38
2023-02-11T11:31:29.497Z,12.95
2023-02-11T11:33:59.065Z,12.07
2023-02-11T11:36:33.179Z,12.65
2023-02-11T11:39:04.070Z,11.75
2023-02-11T11:41:32.594Z,11.90
2023-02-11T11:44:05.119Z,12.57
2023-02-11T11:46:34.574Z,12.90
2023-02-11T11:49:08.201Z,13.80
2023-02-11T11:54:07.206Z,11.95
2023-02-11T11:56:35.607Z,13.48
2023-02-11T11:59:04.121Z,12.30
2023-02-11T12:01:37.202Z,13.57
2023-02-11T12:04:20.402Z,13.00
2023-02-11T12:06:56.152Z,13.57
2023-02-11T12:09:29.469Z,13.40
2023-02-11T12:12:06.141Z,13.68
2023-02-11T12:14:36.568Z,14.82
2023-02-11T12:17:08.523Z,13.68
2023-02-11T12:20:03.033Z,13.13
2023-02-11T12:22:35.705Z,12.43
2023-02-11T12:25:21.044Z,13.75
2023-02-11T12:27:53.625Z,15.15
2023-02-11T12:30:30.336Z,12.95
2023-02-11T12:33:05.192Z,13.18
2023-02-11T12:35:38.395Z,13.38
2023-02-11T12:38:19.766Z,14.20
2023-02-11T12:40:50.068Z,11.15
2023-02-11T12:43:21.904Z,14.98
2023-02-11T12:46:03.029Z,13.88
2023-02-11T12:48:45.617Z,13.27
2023-02-11T12:51:19.814Z,12.93
2023-02-11T12:54:06.969Z,12.18
2023-02-11T12:56:37.975Z,12.60
2023-02-11T12:59:13.910Z,13.13
2023-02-11T13:01:43.615Z,12.55
2023-02-11T13:04:14.521Z,14.00
2023-02-11T13:06:45.757Z,14.50
2023-02-11T13:09:18.886Z,13.25
2023-02-11T13:11:51.803Z,13.02
2023-02-11T13:14:24.689Z,14.25
2023-02-11T13:16:52.609Z,11.27
2023-02-11T13:19:24.787Z,11.85
2023-02-11T13:21:57.416Z,13.30
2023-02-11T13:24:30.022Z,13.45
2023-02-11T13:27:01.365Z,12.32
2023-02-11T13:29:34.505Z,12.93
2023-02-11T13:32:09.596Z,14.25
2023-02-11T13:34:56.533Z,12.68
2023-02-11T13:37:26.421Z,11.27
2023-02-11T13:40:00.977Z,12.50
2023-02-11T13:42:28.836Z,12.55
2023-02-11T13:44:58.179Z,12.82
2023-02-11T13:47:31.170Z,10.73
2023-02-11T13:50:00.266Z,13.18
2023-02-11T13:52:29.459Z,11.23
2023-02-11T13:54:59.089Z,10.30
2023-02-11T13:57:37.201Z,9.27
2023-02-11T14:00:30.776Z,9.95
2023-02-11T14:03:33.791Z,11.52
2023-02-11T14:06:33.781Z,11.85
2023-02-11T14:09:09.563Z,11.50
2023-02-11T14:11:44.941Z,11.50
2023-02-11T14:14:21.669Z,11.40
2023-02-11T14:17:22.769Z,11.57
2023-02-11T14:19:50.668Z,10.68
2023-02-11T14:22:20.456Z,10.30
2023-02-11T14:24:52.145Z,11.23
2023-02-11T14:27:23.225Z,10.68
2023-02-11T14:29:54.905Z,12.38
2023-02-11T14:32:33.515Z,13.48
2023-02-11T14:35:06.416Z,11.98
2023-02-11T14:37:39.185Z,12.25
2023-02-11T14:40:17.763Z,11.93
2023-02-11T14:42:45.908Z,11.15
2023-02-11T14:45:17.795Z,12.85
2023-02-11T14:47:50.142Z,12.80
2023-02-11T14:50:20.310Z,12.88
2023-02-11T14:52:48.959Z,12.68
2023-02-11T14:55:30.049Z,10.82
2023-02-11T14:58:14.931Z,11.07
2023-02-11T15:01:05.661Z,12.70
2023-02-11T15:03:35.975Z,11.73
2023-02-11T15:06:06.388Z,12.18
2023-02-11T15:08:35.456Z,14.13
2023-02-11T15:11:08.847Z,12.15
2023-02-11T15:13:36.736Z,12.75
2023-02-11T15:16:06.942Z,13.13
2023-02-11T15:18:36.916Z,13.00
2023-02-11T15:21:04.996Z,12.88
2023-02-11T15:23:32.914Z,13.48
2023-02-11T15:26:04.793Z,12.70
2023-02-11T15:28:35.322Z,12.80
2023-02-11T15:31:04.473Z,12.02
2023-02-11T15:33:32.985Z,12.32
2023-02-11T15:36:01.225Z,12.70
2023-02-11T15:38:30.245Z,12.38
2023-02-11T15:41:01.092Z,11.95
2023-02-11T15:43:44.199Z,12.23
2023-02-11T15:46:13.871Z,12.75
2023-02-11T15:48:43.644Z,12.05
2023-02-11T15:51:18.585Z,12.38
2023-02-11T15:53:48.968Z,14.65
2023-02-11T15:56:19.888Z,13.45
2023-02-11T15:58:50.173Z,11.55
2023-02-11T16:01:18.753Z,15.10
2023-02-11T16:03:51.135Z,12.45
2023-02-11T16:06:20.348Z,15.25
2023-02-11T16:08:58.289Z,13.85
2023-02-11T16:11:29.542Z,14.25
2023-02-11T16:13:59.945Z,13.85
2023-02-11T16:16:29.057Z,13.50
2023-02-11T16:19:04.846Z,12.50
2023-02-11T16:21:35.696Z,11.88
2023-02-11T16:24:04.627Z,12.98
2023-02-11T16:26:35.113Z,13.25
2023-02-11T16:29:05.713Z,12.10
2023-02-11T16:31:34.477Z,13.15
2023-02-11T16:34:02.436Z,12.48
2023-02-11T16:36:30.297Z,13.30
2023-02-11T16:38:58.099Z,13.43
2023-02-11T16:41:25.892Z,14.05
2023-02-11T16:43:53.624Z,14.23
2023-02-11T16:46:22.766Z,14.27
2023-02-11T16:48:51.005Z,13.10
2023-02-11T16:51:18.929Z,12.10
2023-02-11T16:53:46.648Z,12.90
2023-02-11T16:56:18.509Z,12.23
2023-02-11T16:58:46.545Z,12.30
2023-02-11T17:01:14.551Z,13.27
2023-02-11T17:03:43.962Z,13.35
2023-02-11T17:06:12.628Z,14.00
2023-02-11T17:08:40.663Z,14.70
2023-02-11T17:11:08.502Z,11.13
2023-02-11T17:13:36.439Z,12.98
2023-02-11T17:16:04.211Z,12.95
2023-02-11T17:18:32.029Z,13.00
2023-02-11T17:21:01.332Z,11.48
2023-02-11T17:23:29.148Z,12.15
2023-02-11T17:25:57.230Z,11.27
2023-02-11T17:28:25.014Z,12.77
2023-02-11T17:30:52.980Z,12.13
2023-02-11T17:33:20.878Z,11.52
2023-02-11T17:35:48.610Z,11.88
2023-02-11T17:38:17.669Z,12.93
2023-02-11T17:40:45.584Z,12.10
2023-02-11T17:43:13.425Z,12.82
2023-02-11T17:45:42.332Z,11.57
2023-02-11T17:48:10.006Z,12.48
2023-02-11T17:50:37.758Z,12.00
2023-02-11T17:53:05.451Z,12.05
2023-02-11T17:55:35.136Z,10.45
2023-02-11T17:58:02.967Z,13.10
2023-02-11T18:00:30.749Z,11.93
2023-02-11T18:03:02.698Z,12.40
2023-02-11T18:05:34.537Z,12.82
2023-02-11T18:08:02.203Z,13.70
2023-02-11T18:10:29.918Z,13.40
2023-02-11T18:12:59.026Z,13.73
2023-02-11T18:15:26.729Z,13.10
2023-02-11T18:17:54.438Z,11.38
2023-02-11T18:20:22.214Z,11.18
2023-02-11T18:22:49.941Z,12.23
2023-02-11T18:25:18.766Z,11.95
2023-02-11T18:27:46.553Z,10.77
2023-02-11T18:30:17.338Z,9.85
2023-02-11T18:32:45.169Z,11.25
2023-02-11T18:35:15.149Z,11.27
2023-02-11T18:37:43.624Z,12.60
2023-02-11T18:40:12.131Z,11.57
2023-02-11T18:42:39.945Z,9.18
2023-02-11T18:45:09.404Z,9.48
2023-02-11T18:47:38.654Z,9.57
2023-02-11T18:50:07.324Z,9.52
2023-02-11T18:52:36.806Z,8.98
2023-02-11T18:55:04.621Z,9.63
2023-02-11T18:57:32.371Z,10.02
2023-02-11T19:00:00.159Z,9.93
2023-02-11T19:02:29.286Z,7.53
2023-02-11T19:04:58.379Z,7.53
2023-02-11T19:07:26.169Z,9.90
2023-02-11T19:09:53.916Z,9.85
2023-02-11T19:12:21.688Z,9.90
2023-02-11T19:14:49.459Z,10.57
2023-02-11T19:17:17.335Z,9.25
2023-02-11T19:19:45.029Z,9.88
2023-02-11T19:22:14.097Z,8.98
2023-02-11T19:24:41.791Z,11.82
2023-02-11T19:27:10.185Z,11.05
2023-02-11T19:29:38.228Z,10.80
2023-02-11T19:32:06.845Z,10.40
2023-02-11T19:34:40.880Z,11.05
2023-02-11T19:37:08.631Z,12.13
2023-02-11T19:39:37.711Z,10.15
2023-02-11T19:42:05.657Z,11.10
2023-02-11T19:44:33.439Z,10.48
2023-02-11T19:47:01.720Z,10.95
2023-02-11T19:49:29.485Z,10.10
2023-02-11T19:51:58.380Z,10.45
2023-02-11T19:54:27.358Z,10.95
2023-02-11T19:56:56.920Z,9.45
2023-02-11T19:59:24.587Z,10.20
2023-02-11T20:01:53.741Z,10.60
2023-02-11T20:04:21.716Z,10.73
2023-02-11T20:06:49.449Z,11.48
2023-02-11T20:09:17.191Z,9.80
2023-02-11T20:11:45.031Z,10.20
2023-02-11T20:14:15.590Z,9.85
2023-02-11T20:16:49.243Z,10.65
2023-02-11T20:19:18.679Z,10.70
2023-02-11T20:21:47.732Z,11.98
2023-02-11T20:24:15.680Z,10.35
2023-02-11T20:26:43.417Z,10.07
2023-02-11T20:29:11.327Z,10.60
2023-02-11T20:31:40.545Z,12.15
2023-02-11T20:34:08.377Z,10.15
2023-02-11T20:36:38.022Z,11.18
2023-02-11T20:39:06.439Z,12.63
2023-02-11T20:41:35.250Z,12.43
2023-02-11T20:44:03.798Z,11.15
2023-02-11T20:46:32.878Z,14.70
2023-02-11T20:49:02.520Z,11.30
2023-02-11T20:51:31.670Z,13.15
2023-02-11T20:53:59.772Z,14.02
2023-02-11T20:56:28.697Z,12.20
2023-02-11T20:58:58.091Z,13.65
2023-02-11T21:01:26.679Z,12.27
2023-02-11T21:03:55.899Z,12.27
2023-02-11T21:06:25.715Z,12.32
2023-02-11T21:08:54.083Z,12.77
2023-02-11T21:11:21.929Z,12.05
2023-02-11T21:13:49.637Z,13.27
2023-02-11T21:16:18.083Z,13.20
2023-02-11T21:18:45.956Z,13.25
2023-02-11T21:21:13.743Z,13.52
2023-02-11T21:23:42.820Z,12.65
2023-02-11T21:26:10.517Z,11.43
2023-02-11T21:28:40.986Z,13.32
2023-02-11T21:31:09.049Z,12.00
2023-02-11T21:33:36.881Z,13.38
2023-02-11T21:36:07.680Z,11.10
2023-02-11T21:38:35.775Z,11.57
2023-02-11T21:41:05.718Z,11.55
2023-02-11T21:43:34.111Z,9.23
2023-02-11T21:46:02.061Z,10.82
2023-02-11T21:48:32.118Z,9.63
2023-02-11T21:51:00.929Z,11.88
2023-02-11T21:53:28.643Z,9.57
2023-02-11T21:56:02.858Z,11.27
2023-02-11T21:58:31.952Z,9.45
2023-02-11T22:00:59.738Z,9.07
2023-02-11T22:03:27.492Z,8.85
2023-02-11T22:05:55.450Z,9.60
2023-02-11T22:08:23.325Z,9.02
2023-02-11T22:10:51.018Z,10.23
2023-02-11T22:13:18.750Z,10.90
2023-02-11T22:15:57.816Z,9.75
2023-02-11T22:18:25.721Z,10.93
2023-02-11T22:21:03.253Z,9.23
2023-02-11T22:23:31.231Z,10.32
2023-02-11T22:25:59.361Z,9.07
2023-02-11T22:28:27.179Z,8.93
2023-02-11T22:30:56.897Z,10.23
2023-02-11T22:33:25.084Z,10.98
2023-02-11T22:35:58.551Z,10.32
2023-02-11T22:38:26.303Z,10.50
2023-02-11T22:40:54.046Z,9.30
2023-02-11T22:43:21.854Z,9.93
2023-02-11T22:45:49.802Z,8.77
2023-02-11T22:48:22.094Z,10.05
2023-02-11T22:50:50.802Z,9.48
2023-02-11T22:53:18.480Z,10.77
2023-02-11T22:55:46.192Z,8.13
2023-02-11T22:58:13.937Z,9.10
2023-02-11T23:00:42.750Z,8.55
2023-02-11T23:03:11.361Z,8.43
2023-02-11T23:05:41.066Z,8.00
2023-02-11T23:08:09.280Z,8.45
2023-02-11T23:10:37.231Z,9.15
2023-02-11T23:13:05.757Z,8.82
2023-02-11T23:15:33.837Z,7.30
2023-02-11T23:18:02.636Z,7.65
2023-02-11T23:20:30.398Z,8.55
2023-02-11T23:22:59.445Z,7.50
2023-02-11T23:25:27.208Z,9.00
2023-02-11T23:27:54.921Z,7.95
2023-02-11T23:30:23.042Z,7.95
2023-02-11T23:32:51.175Z,8.63
2023-02-11T23:35:22.176Z,8.00
2023-02-11T23:37:50.284Z,7.53
2023-02-11T23:40:19.848Z,7.53
2023-02-11T23:42:49.059Z,8.90
2023-02-11T23:45:17.036Z,6.82
2023-02-11T23:47:45.050Z,6.57
2023-02-11T23:50:12.959Z,7.40
2023-02-11T23:52:40.645Z,8.10
2023-02-11T23:55:08.524Z,6.28
2023-02-11T23:57:37.582Z,7.50
